Portada
METAR-TAF:

METAR-TAF

Aeropuertos :

Caen, Francia

latitud: 49-11N, longitud: 000-27W, altitud: 78 m

Observación

El informe se hizo hace 20 minutos, a las 03:30 UTC
Viento 3 kt del oeste
Temperatura 10°C
Humedad 87%
Presión 1010 hPa
Visibilidad 10 km o más
sin nubes por debajo de 1500 m y sin presencia de cumulonimbus.

METAR: LFRK 030330Z AUTO 26003KT CAVOK 10/08 Q1010

Hora: 05:50 (03:50 UTC)

Pronóstico

El informe se hizo hace 13 horas y 50 minutos, a las 14:00 UTC
Pronóstico válido del 02 a las 15 UTC al 02 a las 24 UTC
Viento 10 kt del norte
Visibilidad 10 km o más
sin nubes por debajo de 1500 m y sin presencia de cumulonimbus.
Evolucionando progresivamente
del 02 a las 18 UTC al 02 a las 21 UTC
Viento 5 kt con dirección variable

TAF: LFRK 021400Z 0215/0224 35010KT CAVOK BECMG 0218/0221 VRB05KT

Observaciones y pronósticos meteorológicos de más de 4000 aeropuertos (mensajes METAR y TAF).

Los puntos amarillos y rojos representan las estaciones disponibles.

Ponga el ratón en el punto deseado para ver el nombre de la estación.

Haga clic para ver las observaciones y los pronósticos meteorológicos.

Para cambiar el mapa : haga clic en los botones verdes con una cruz de color negro para hacer un zoom, en el botón verde con un guión para alejar o en las flechas verdes para mapas adyacentes.


METAR-TAF: